Rusty Hill — WDA6027 — position and weather

sailwx.info

Track history (hours):
 
Tides and Currents Weather Stations Pressure Air Temp Water Temp Dewpoint Dewpoint Depression Visibility Wind Speed Wind Dir Waves Ship Positions

Rusty Hill

Owner: Blessey Enterprises, Inc., HARAHAN, LA. More information available from US FCC via Universal Licensing System.

Last reported at 2017-Oct-14 23:26 UTC. Time now 2017-Oct-17 22:35 UTC.
Position N 29°32' W 094°54'.

Length 43 m; draft 2.6 m.

Type: Tug. MMSI: 366826930.

Date/timePositionNaut miles runAvg speedWind from/ knotsBaromVisibWave heightAir tempDewpointWater temp
2017-Oct-14 23:26N 29°32' W 094°54'3 7.5
2017-Oct-14 23:00N 29°35' W 094°56'4 7.4
2017-Oct-14 22:31N 29°38' W 094°58'4 7.5
2017-Oct-14 22:01N 29°41' W 094°59'3 6.4
2017-Oct-14 21:29N 29°44' W 095°02'2 0.1
2017-Oct-13 16:13N 29°42' W 095°01'1 6.9
2017-Oct-13 16:00N 29°42' W 094°60'4 7.2
2017-Oct-13 15:27N 29°38' W 094°58'3 7.6
2017-Oct-13 15:00N 29°35' W 094°56'4 7.5
2017-Oct-13 14:29N 29°32' W 094°54'72 5.4
2017-Oct-13 01:19N 30°04' W 093°39'4 7.3
2017-Oct-13 00:43N 30°04' W 093°34'2 7.0
2017-Oct-13 00:26N 30°04' W 093°32'2 5.1
2017-Oct-13 00:00N 30°04' W 093°30'3 6.6
2017-Oct-12 23:30N 30°04' W 093°26'3 6.4
2017-Oct-12 23:00N 30°04' W 093°22'3 5.7
2017-Oct-12 22:30N 30°05' W 093°20'3 5.1
2017-Oct-12 22:00N 30°05' W 093°17'3 5.9
2017-Oct-12 21:30N 30°02' W 093°15'3 5.4
2017-Oct-12 21:00N 29°60' W 093°13'3 5.8
2017-Oct-12 20:30N 29°58' W 093°11'3 6.3
2017-Oct-12 20:00N 29°56' W 093°08'44 6.3
2017-Oct-12 13:03N 29°50' W 092°18'1 7.0
2017-Oct-12 12:58N 29°50' W 092°18'3 6.4
2017-Oct-12 12:30N 29°48' W 092°15'2 4.9
2017-Oct-12 12:00N 29°47' W 092°12'1 2.2
2017-Oct-12 11:30N 29°47' W 092°11'0 0.1
2017-Oct-12 11:00N 29°47' W 092°11'0 0.0
2017-Oct-12 10:30N 29°47' W 092°11'0 0.0
2017-Oct-12 10:00N 29°47' W 092°11'0 0.4
2017-Oct-12 09:30N 29°47' W 092°11'2 4.7
2017-Oct-12 09:00N 29°47' W 092°08'3 6.3
2017-Oct-12 08:30N 29°48' W 092°05'3 6.7
2017-Oct-12 07:59N 29°49' W 092°01'3 7.1
2017-Oct-12 07:30N 29°50' W 091°57'61 6.2
2017-Oct-11 21:36N 29°32' W 090°50'1 6.9
2017-Oct-11 21:30N 29°32' W 090°50'3 6.8
2017-Oct-11 21:00N 29°32' W 090°46'3 5.1
2017-Oct-11 20:30N 29°34' W 090°43'2 5.0
2017-Oct-11 20:00N 29°36' W 090°43'1 1.9
2017-Oct-11 19:30N 29°37' W 090°42'0 0.0
2017-Oct-11 19:00N 29°37' W 090°42'0 0.0
2017-Oct-11 18:30N 29°37' W 090°42'0 0.0
2017-Oct-11 18:00N 29°37' W 090°42'0 0.0
2017-Oct-11 17:30N 29°37' W 090°42'0 0.6
2017-Oct-11 17:00N 29°37' W 090°41'  
2017-Oct-05 22:25N 29°32' W 090°51'3 7.5
2017-Oct-05 22:00N 29°32' W 090°47'2 4.3
2017-Oct-05 21:31N 29°33' W 090°45'2 3.1
2017-Oct-05 21:01N 29°32' W 090°46'3 6.5
2017-Oct-05 20:30N 29°32' W 090°50'68 5.1
2017-Oct-05 07:14N 29°48' W 092°06'1 6.3
2017-Oct-05 07:00N 29°47' W 092°08'3 5.9
2017-Oct-05 06:30N 29°47' W 092°11'1 2.2
2017-Oct-05 06:00N 29°47' W 092°12'1 2.2
2017-Oct-05 05:30N 29°48' W 092°14'1 2.5
2017-Oct-05 05:00N 29°48' W 092°15'0 0.2
2017-Oct-05 04:30N 29°48' W 092°15'0 0.0
2017-Oct-05 04:00N 29°48' W 092°15'0 0.0
2017-Oct-05 03:30N 29°48' W 092°15'0 0.0
2017-Oct-05 03:00N 29°48' W 092°15'0 0.0
2017-Oct-05 02:30N 29°48' W 092°15'0 0.0
2017-Oct-05 02:00N 29°48' W 092°15'0 0.0
2017-Oct-05 01:30N 29°48' W 092°15'0 1.0
2017-Oct-05 01:00N 29°48' W 092°16'3 5.7
2017-Oct-05 00:30N 29°50' W 092°18'  
Track history (hours):
 
Tides and Currents Weather Stations Pressure Air Temp Water Temp Dewpoint Dewpoint Depression Visibility Wind Speed Wind Dir Waves Ship Positions

Rusty Hill

Owner: Blessey Enterprises, Inc., HARAHAN, LA. More information available from US FCC via Universal Licensing System.

Last reported at 2017-Oct-14 23:26 UTC. Time now 2017-Oct-17 22:35 UTC.
Position N 29°32' W 094°54'.

Length 43 m; draft 2.6 m.

Type: Tug. MMSI: 366826930.

Date/timePositionNaut miles runAvg speedWind from/ knotsBaromVisibWave heightAir tempDewpointWater temp
2017-Oct-14 23:26N 29°32' W 094°54'3 7.5
2017-Oct-14 23:00N 29°35' W 094°56'4 7.4
2017-Oct-14 22:31N 29°38' W 094°58'4 7.5
2017-Oct-14 22:01N 29°41' W 094°59'3 6.4
2017-Oct-14 21:29N 29°44' W 095°02'2 0.1
2017-Oct-13 16:13N 29°42' W 095°01'1 6.9
2017-Oct-13 16:00N 29°42' W 094°60'4 7.2
2017-Oct-13 15:27N 29°38' W 094°58'3 7.6
2017-Oct-13 15:00N 29°35' W 094°56'4 7.5
2017-Oct-13 14:29N 29°32' W 094°54'72 5.4
2017-Oct-13 01:19N 30°04' W 093°39'4 7.3
2017-Oct-13 00:43N 30°04' W 093°34'2 7.0
2017-Oct-13 00:26N 30°04' W 093°32'2 5.1
2017-Oct-13 00:00N 30°04' W 093°30'3 6.6
2017-Oct-12 23:30N 30°04' W 093°26'3 6.4
2017-Oct-12 23:00N 30°04' W 093°22'3 5.7
2017-Oct-12 22:30N 30°05' W 093°20'3 5.1
2017-Oct-12 22:00N 30°05' W 093°17'3 5.9
2017-Oct-12 21:30N 30°02' W 093°15'3 5.4
2017-Oct-12 21:00N 29°60' W 093°13'3 5.8
2017-Oct-12 20:30N 29°58' W 093°11'3 6.3
2017-Oct-12 20:00N 29°56' W 093°08'44 6.3
2017-Oct-12 13:03N 29°50' W 092°18'1 7.0
2017-Oct-12 12:58N 29°50' W 092°18'3 6.4
2017-Oct-12 12:30N 29°48' W 092°15'2 4.9
2017-Oct-12 12:00N 29°47' W 092°12'1 2.2
2017-Oct-12 11:30N 29°47' W 092°11'0 0.1
2017-Oct-12 11:00N 29°47' W 092°11'0 0.0
2017-Oct-12 10:30N 29°47' W 092°11'0 0.0
2017-Oct-12 10:00N 29°47' W 092°11'0 0.4
2017-Oct-12 09:30N 29°47' W 092°11'2 4.7
2017-Oct-12 09:00N 29°47' W 092°08'3 6.3
2017-Oct-12 08:30N 29°48' W 092°05'3 6.7
2017-Oct-12 07:59N 29°49' W 092°01'3 7.1
2017-Oct-12 07:30N 29°50' W 091°57'61 6.2
2017-Oct-11 21:36N 29°32' W 090°50'1 6.9
2017-Oct-11 21:30N 29°32' W 090°50'3 6.8
2017-Oct-11 21:00N 29°32' W 090°46'3 5.1
2017-Oct-11 20:30N 29°34' W 090°43'2 5.0
2017-Oct-11 20:00N 29°36' W 090°43'1 1.9
2017-Oct-11 19:30N 29°37' W 090°42'0 0.0
2017-Oct-11 19:00N 29°37' W 090°42'0 0.0
2017-Oct-11 18:30N 29°37' W 090°42'0 0.0
2017-Oct-11 18:00N 29°37' W 090°42'0 0.0
2017-Oct-11 17:30N 29°37' W 090°42'0 0.6
2017-Oct-11 17:00N 29°37' W 090°41'  
2017-Oct-05 22:25N 29°32' W 090°51'3 7.5
2017-Oct-05 22:00N 29°32' W 090°47'2 4.3
2017-Oct-05 21:31N 29°33' W 090°45'2 3.1
2017-Oct-05 21:01N 29°32' W 090°46'3 6.5
2017-Oct-05 20:30N 29°32' W 090°50'68 5.1
2017-Oct-05 07:14N 29°48' W 092°06'1 6.3
2017-Oct-05 07:00N 29°47' W 092°08'3 5.9
2017-Oct-05 06:30N 29°47' W 092°11'1 2.2
2017-Oct-05 06:00N 29°47' W 092°12'1 2.2
2017-Oct-05 05:30N 29°48' W 092°14'1 2.5
2017-Oct-05 05:00N 29°48' W 092°15'0 0.2
2017-Oct-05 04:30N 29°48' W 092°15'0 0.0
2017-Oct-05 04:00N 29°48' W 092°15'0 0.0
2017-Oct-05 03:30N 29°48' W 092°15'0 0.0
2017-Oct-05 03:00N 29°48' W 092°15'0 0.0
2017-Oct-05 02:30N 29°48' W 092°15'0 0.0
2017-Oct-05 02:00N 29°48' W 092°15'0 0.0
2017-Oct-05 01:30N 29°48' W 092°15'0 1.0
2017-Oct-05 01:00N 29°48' W 092°16'3 5.7
2017-Oct-05 00:30N 29°50' W 092°18'  

Dump ship's entire track history